Time;durP1;ratioP1;P1;durP2;ratioP2;P2;SDS_P1;SDS_P2;PMS_P1;PMS_P2;Temp;Humidity;BMP_temperature;BMP_pressure;BME280_temperature;BME280_humidity;BME280_pressure;Samples;Min_cycle;Max_cycle;Signal;HPM_P1;HPM_P2
2023/12/05 00:00:18;;;;;;;13.38;12.23;;;;;;;;;;5044114;28;20048;-75
2023/12/05 00:02:48;;;;;;;20.02;15.65;;;;;;;;;;5043600;28;20052;-75
2023/12/05 00:05:18;;;;;;;19.52;11.48;;;;;;;;;;5043966;28;20052;-74
2023/12/05 00:07:49;;;;;;;12.18;11.25;;;;;;;;;;5043621;28;20048;-75
2023/12/05 00:10:20;;;;;;;10.82;9.63;;;;;;;;;;5041843;28;20044;-74
2023/12/05 00:12:49;;;;;;;14.55;13.25;;;;;;;;;;5043256;28;20492;-74
2023/12/05 00:15:20;;;;;;;18.85;17.15;;;;;;;;;;5042069;28;20773;-75
2023/12/05 00:17:51;;;;;;;12.18;10.68;;;;;;;;;;5043097;28;20515;-75
2023/12/05 00:20:21;;;;;;;11.65;10.38;;;;;;;;;;5044058;28;20052;-75
2023/12/05 00:22:52;;;;;;;14.90;12.07;;;;;;;;;;5042964;28;20107;-75
2023/12/05 00:25:22;;;;;;;24.80;22.67;;;;;;;;;;5045830;28;20057;-74
2023/12/05 00:27:53;;;;;;;15.60;10.98;;;;;;;;;;5042752;28;20059;-75
2023/12/05 00:30:25;;;;;;;15.38;14.07;;;;;;;;;;5040941;28;20519;-74
2023/12/05 00:32:56;;;;;;;13.38;12.20;;;;;;;;;;5042224;28;20049;-74
2023/12/05 00:35:27;;;;;;;14.38;10.60;;;;;;;;;;5043294;28;20045;-75
2023/12/05 00:37:58;;;;;;;34.38;31.48;;;;;;;;;;5042566;28;20538;-75
2023/12/05 00:40:29;;;;;;;13.50;12.10;;;;;;;;;;5042621;28;20068;-75
2023/12/05 00:42:59;;;;;;;14.70;13.27;;;;;;;;;;5041012;28;20507;-74
2023/12/05 00:45:29;;;;;;;12.52;11.15;;;;;;;;;;5041560;28;20052;-74
2023/12/05 00:48:00;;;;;;;13.95;12.50;;;;;;;;;;5042518;28;20040;-74
2023/12/05 00:50:30;;;;;;;21.33;10.90;;;;;;;;;;5041419;28;20045;-73
2023/12/05 00:53:09;;;;;;;17.83;16.13;;;;;;;;;;5043542;28;20404;-75
2023/12/05 00:55:40;;;;;;;18.75;10.65;;;;;;;;;;5040532;28;20377;-74
2023/12/05 00:58:10;;;;;;;16.92;15.18;;;;;;;;;;5041682;28;20468;-75
2023/12/05 01:00:41;;;;;;;12.82;11.68;;;;;;;;;;5040213;28;20049;-75
2023/12/05 01:03:11;;;;;;;13.85;12.13;;;;;;;;;;5041112;28;20049;-74
2023/12/05 01:05:42;;;;;;;18.50;16.52;;;;;;;;;;5039914;28;20422;-74
2023/12/05 01:08:12;;;;;;;17.23;12.90;;;;;;;;;;5041315;28;20045;-74
2023/12/05 01:10:43;;;;;;;18.48;15.13;;;;;;;;;;5038878;28;20064;-74
2023/12/05 01:13:14;;;;;;;20.27;10.90;;;;;;;;;;5041430;28;20048;-74
2023/12/05 01:15:44;;;;;;;18.02;16.15;;;;;;;;;;5041014;28;20442;-73
2023/12/05 01:18:14;;;;;;;11.13;9.98;;;;;;;;;;5041931;28;20060;-74
2023/12/05 01:20:44;;;;;;;12.65;10.07;;;;;;;;;;5042081;28;20124;-75
2023/12/05 01:23:14;;;;;;;13.32;11.93;;;;;;;;;;5042179;28;20052;-73
2023/12/05 01:25:45;;;;;;;16.15;9.65;;;;;;;;;;5042317;28;20048;-75
2023/12/05 01:28:15;;;;;;;17.67;9.07;;;;;;;;;;5042004;28;20048;-75
2023/12/05 01:30:45;;;;;;;14.60;9.95;;;;;;;;;;5039933;28;20045;-74
2023/12/05 01:33:15;;;;;;;27.17;14.60;;;;;;;;;;5039945;28;20049;-74
2023/12/05 01:35:46;;;;;;;24.23;14.63;;;;;;;;;;5041517;28;20060;-73
2023/12/05 01:38:18;;;;;;;14.73;8.80;;;;;;;;;;5041222;28;20049;-75
2023/12/05 01:40:49;;;;;;;17.00;9.77;;;;;;;;;;5041581;28;20554;-74
2023/12/05 01:43:18;;;;;;;24.92;20.20;;;;;;;;;;5041199;28;20423;-73
2023/12/05 01:45:49;;;;;;;11.35;8.18;;;;;;;;;;5040544;28;20053;-74
2023/12/05 01:48:20;;;;;;;15.00;8.02;;;;;;;;;;5041303;28;20045;-75
2023/12/05 01:50:53;;;;;;;15.18;8.98;;;;;;;;;;5041767;28;20049;-75
2023/12/05 01:53:23;;;;;;;14.63;9.35;;;;;;;;;;5041333;28;20045;-75
2023/12/05 01:55:55;;;;;;;16.27;11.32;;;;;;;;;;5043636;28;20080;-74
2023/12/05 01:58:26;;;;;;;17.35;8.35;;;;;;;;;;5045610;28;20048;-76
2023/12/05 02:00:57;;;;;;;18.33;10.45;;;;;;;;;;5045439;28;20052;-74
2023/12/05 02:03:27;;;;;;;17.20;10.63;;;;;;;;;;5045150;28;20495;-74
2023/12/05 02:05:58;;;;;;;18.90;11.32;;;;;;;;;;5045175;28;20056;-75
2023/12/05 02:08:31;;;;;;;12.05;9.18;;;;;;;;;;5044888;28;20052;-75
2023/12/05 02:11:01;;;;;;;18.20;8.77;;;;;;;;;;5045765;28;20542;-74
2023/12/05 02:13:32;;;;;;;18.90;9.85;;;;;;;;;;5045717;28;20052;-76
2023/12/05 02:16:24;;;;;;;12.02;9.27;;;;;;;;;;5045560;28;20063;-73
2023/12/05 02:19:17;;;;;;;44.42;41.00;;;;;;;;;;5045165;28;20577;-74
2023/12/05 02:21:53;;;;;;;20.65;10.75;;;;;;;;;;5044985;28;20044;-74
2023/12/05 02:24:34;;;;;;;23.55;16.10;;;;;;;;;;5045009;28;20416;-75
2023/12/05 02:27:13;;;;;;;17.92;11.60;;;;;;;;;;5044582;28;20045;-75
2023/12/05 02:29:49;;;;;;;20.48;12.35;;;;;;;;;;5044903;28;20120;-74
2023/12/05 02:32:20;;;;;;;21.70;11.52;;;;;;;;;;5044869;28;20045;-73
2023/12/05 02:34:50;;;;;;;28.98;18.83;;;;;;;;;;5044410;28;20424;-73
2023/12/05 02:37:40;;;;;;;15.18;9.88;;;;;;;;;;5044396;28;20457;-75
2023/12/05 02:40:31;;;;;;;16.17;11.65;;;;;;;;;;5044710;28;20519;-74
2023/12/05 02:43:08;;;;;;;16.90;10.05;;;;;;;;;;5043917;28;20061;-74
2023/12/05 02:45:39;;;;;;;16.70;12.90;;;;;;;;;;5045041;28;20056;-74
2023/12/05 02:48:12;;;;;;;18.40;16.20;;;;;;;;;;5045212;28;20886;-75
2023/12/05 02:50:42;;;;;;;22.90;11.57;;;;;;;;;;5045044;28;20048;-75
2023/12/05 02:53:12;;;;;;;19.80;10.80;;;;;;;;;;5043999;28;20059;-73
2023/12/05 02:55:48;;;;;;;21.50;10.07;;;;;;;;;;5042785;28;20044;-74
2023/12/05 02:58:18;;;;;;;16.00;11.05;;;;;;;;;;5044390;28;20049;-74
2023/12/05 03:00:49;;;;;;;25.63;16.40;;;;;;;;;;5044702;28;20407;-74
2023/12/05 03:03:19;;;;;;;17.88;11.38;;;;;;;;;;5044077;28;20073;-74
2023/12/05 03:05:50;;;;;;;19.30;10.93;;;;;;;;;;5044319;28;20045;-74
2023/12/05 03:08:20;;;;;;;19.60;9.10;;;;;;;;;;5043733;28;20048;-75
2023/12/05 03:10:51;;;;;;;22.95;10.00;;;;;;;;;;5044354;28;20053;-75
2023/12/05 03:13:31;;;;;;;18.35;10.73;;;;;;;;;;5044219;28;20053;-75
2023/12/05 03:16:01;;;;;;;70.65;63.95;;;;;;;;;;5043786;28;20049;-75
2023/12/05 03:18:31;;;;;;;16.40;7.55;;;;;;;;;;5044252;28;20048;-74
2023/12/05 03:21:01;;;;;;;34.08;30.63;;;;;;;;;;5044298;28;20053;-74
2023/12/05 03:23:32;;;;;;;16.95;9.75;;;;;;;;;;5043958;28;20053;-74
2023/12/05 03:26:02;;;;;;;16.02;9.63;;;;;;;;;;5043954;28;20041;-74
2023/12/05 03:28:32;;;;;;;18.50;11.52;;;;;;;;;;5044398;28;20044;-75
2023/12/05 03:31:02;;;;;;;18.60;13.00;;;;;;;;;;5043449;28;20045;-76
2023/12/05 03:33:32;;;;;;;16.90;10.25;;;;;;;;;;5044078;28;20056;-74
2023/12/05 03:36:04;;;;;;;23.42;14.05;;;;;;;;;;5043503;28;20052;-73
2023/12/05 03:38:38;;;;;;;21.42;10.68;;;;;;;;;;5043208;28;20048;-73
2023/12/05 03:41:09;;;;;;;15.98;14.13;;;;;;;;;;5043215;28;20416;-74
2023/12/05 03:43:40;;;;;;;23.88;12.95;;;;;;;;;;5041507;28;20091;-74
2023/12/05 03:46:10;;;;;;;21.30;15.32;;;;;;;;;;5043199;28;20037;-74
2023/12/05 03:48:42;;;;;;;19.58;9.82;;;;;;;;;;5043638;28;20057;-74
2023/12/05 03:51:13;;;;;;;16.02;8.63;;;;;;;;;;5043327;28;20045;-75
2023/12/05 03:53:44;;;;;;;17.75;11.32;;;;;;;;;;5043411;28;20739;-74
2023/12/05 03:56:15;;;;;;;18.50;11.45;;;;;;;;;;5042525;28;20052;-74
2023/12/05 03:58:45;;;;;;;24.30;9.63;;;;;;;;;;5042975;28;20063;-75
2023/12/05 04:01:16;;;;;;;21.23;13.75;;;;;;;;;;5042685;28;20052;-74
2023/12/05 04:03:47;;;;;;;16.17;9.75;;;;;;;;;;5041461;28;20057;-75
2023/12/05 04:06:24;;;;;;;15.43;9.93;;;;;;;;;;5043356;28;20047;-75
2023/12/05 04:08:54;;;;;;;29.00;10.73;;;;;;;;;;5043780;28;20049;-75
2023/12/05 04:11:31;;;;;;;18.00;12.70;;;;;;;;;;5042217;28;20079;-75
2023/12/05 04:14:04;;;;;;;14.73;11.55;;;;;;;;;;5042887;28;20047;-75
2023/12/05 04:16:35;;;;;;;20.77;11.52;;;;;;;;;;5043813;28;20068;-74
2023/12/05 04:19:05;;;;;;;19.13;9.45;;;;;;;;;;5042757;28;20049;-74
2023/12/05 04:21:35;;;;;;;16.83;10.73;;;;;;;;;;5042296;28;20060;-74
2023/12/05 04:24:07;;;;;;;18.15;16.15;;;;;;;;;;5042923;28;20496;-75
2023/12/05 04:26:38;;;;;;;13.85;10.48;;;;;;;;;;5042837;28;20041;-75
2023/12/05 04:29:08;;;;;;;18.77;8.93;;;;;;;;;;5042945;28;20049;-74
2023/12/05 04:31:38;;;;;;;19.05;15.05;;;;;;;;;;5042457;28;20103;-74
2023/12/05 04:34:08;;;;;;;20.25;14.18;;;;;;;;;;5042341;28;20439;-74
2023/12/05 04:36:38;;;;;;;19.35;10.90;;;;;;;;;;5042526;28;20048;-76
2023/12/05 04:39:09;;;;;;;20.45;9.48;;;;;;;;;;5041919;28;20079;-74
2023/12/05 04:41:39;;;;;;;10.82;9.63;;;;;;;;;;5042589;28;20048;-76
2023/12/05 04:44:09;;;;;;;28.35;24.52;;;;;;;;;;5042831;28;20072;-76
2023/12/05 04:46:39;;;;;;;13.60;9.57;;;;;;;;;;5042523;28;20055;-74
2023/12/05 04:49:10;;;;;;;21.52;10.02;;;;;;;;;;5042348;28;20048;-74
2023/12/05 04:51:41;;;;;;;16.63;11.73;;;;;;;;;;5042273;28;20056;-75
2023/12/05 04:54:13;;;;;;;17.35;10.05;;;;;;;;;;5041834;28;20060;-75
2023/12/05 04:56:43;;;;;;;20.17;11.23;;;;;;;;;;5041519;28;20046;-75
2023/12/05 04:59:13;;;;;;;26.65;22.55;;;;;;;;;;5042050;28;20048;-74
2023/12/05 05:01:46;;;;;;;16.98;15.10;;;;;;;;;;5042945;28;20408;-75
2023/12/05 05:04:17;;;;;;;18.70;14.00;;;;;;;;;;5041446;28;20350;-76
2023/12/05 05:06:47;;;;;;;17.42;10.77;;;;;;;;;;5041422;28;20052;-74
2023/12/05 05:09:18;;;;;;;19.75;11.93;;;;;;;;;;5041935;28;20053;-74
2023/12/05 05:11:49;;;;;;;15.63;10.32;;;;;;;;;;5040449;28;20045;-75
2023/12/05 05:14:20;;;;;;;23.05;17.08;;;;;;;;;;5042350;28;20052;-74
2023/12/05 05:16:50;;;;;;;20.15;10.52;;;;;;;;;;5042398;28;20045;-73
2023/12/05 05:19:19;;;;;;;21.45;11.60;;;;;;;;;;5041883;28;20049;-74
2023/12/05 05:21:50;;;;;;;20.77;10.18;;;;;;;;;;5041767;28;20049;-75
2023/12/05 05:24:21;;;;;;;16.63;8.95;;;;;;;;;;5042125;28;20028;-75
2023/12/05 05:26:51;;;;;;;23.23;11.02;;;;;;;;;;5041643;28;20531;-75
2023/12/05 05:29:21;;;;;;;19.10;11.05;;;;;;;;;;5039800;28;20785;-75
2023/12/05 05:31:51;;;;;;;19.38;14.32;;;;;;;;;;5041293;28;20415;-75
2023/12/05 05:34:21;;;;;;;17.38;11.32;;;;;;;;;;5041888;28;20048;-75
2023/12/05 05:36:52;;;;;;;16.23;10.02;;;;;;;;;;5041136;28;20056;-74
2023/12/05 05:39:23;;;;;;;17.95;13.27;;;;;;;;;;5041723;28;20064;-75
2023/12/05 05:41:53;;;;;;;15.57;10.02;;;;;;;;;;5042145;28;20052;-75
2023/12/05 05:44:24;;;;;;;20.73;18.83;;;;;;;;;;5042116;28;20515;-74
2023/12/05 05:46:54;;;;;;;19.50;11.32;;;;;;;;;;5041662;28;20056;-74
2023/12/05 05:49:24;;;;;;;17.63;14.25;;;;;;;;;;5041676;28;20048;-76
2023/12/05 05:51:54;;;;;;;17.02;15.27;;;;;;;;;;5041693;28;20068;-75
2023/12/05 05:54:24;;;;;;;19.23;12.10;;;;;;;;;;5040998;28;20060;-74
2023/12/05 05:56:54;;;;;;;15.05;11.63;;;;;;;;;;5041738;28;20504;-74
2023/12/05 05:59:24;;;;;;;9.40;7.47;;;;;;;;;;5041623;28;20052;-74
2023/12/05 06:01:56;;;;;;;26.98;22.55;;;;;;;;;;5039893;28;20057;-74
2023/12/05 06:04:27;;;;;;;20.15;13.25;;;;;;;;;;5040152;28;20049;-75
2023/12/05 06:06:57;;;;;;;22.67;14.23;;;;;;;;;;5041124;28;20424;-74
2023/12/05 06:09:27;;;;;;;17.70;10.43;;;;;;;;;;5041067;28;20052;-75
2023/12/05 06:11:57;;;;;;;19.30;8.40;;;;;;;;;;5041336;28;20041;-75
2023/12/05 06:14:27;;;;;;;16.48;14.65;;;;;;;;;;5040928;28;20071;-75
2023/12/05 06:16:58;;;;;;;18.65;16.15;;;;;;;;;;5041163;28;20419;-76
2023/12/05 06:19:29;;;;;;;16.63;12.90;;;;;;;;;;5041152;28;20491;-75
2023/12/05 06:21:59;;;;;;;15.77;10.13;;;;;;;;;;5041605;28;20049;-75
2023/12/05 06:24:29;;;;;;;20.10;11.48;;;;;;;;;;5039808;28;20052;-75
2023/12/05 06:26:59;;;;;;;21.40;19.25;;;;;;;;;;5039960;28;20765;-76
2023/12/05 06:29:29;;;;;;;16.20;9.25;;;;;;;;;;5041044;28;20538;-75
2023/12/05 06:32:00;;;;;;;16.08;8.05;;;;;;;;;;5041199;28;20587;-75
2023/12/05 06:34:31;;;;;;;17.50;8.25;;;;;;;;;;5041362;28;20044;-74
2023/12/05 06:37:01;;;;;;;18.42;9.40;;;;;;;;;;5040089;28;20060;-74
2023/12/05 06:39:31;;;;;;;24.58;16.60;;;;;;;;;;5040691;28;20396;-75
2023/12/05 06:42:01;;;;;;;20.45;17.60;;;;;;;;;;5043588;28;20380;-73
2023/12/05 06:44:31;;;;;;;25.10;15.25;;;;;;;;;;5045242;28;20049;-75
2023/12/05 06:47:02;;;;;;;18.58;16.90;;;;;;;;;;5044606;28;20048;-74
2023/12/05 06:49:33;;;;;;;14.27;12.90;;;;;;;;;;5044713;28;20520;-74
2023/12/05 06:52:05;;;;;;;14.65;12.80;;;;;;;;;;5045110;28;20045;-74
2023/12/05 06:54:35;;;;;;;17.50;10.18;;;;;;;;;;5045602;28;20060;-74
2023/12/05 06:57:06;;;;;;;22.00;12.48;;;;;;;;;;5045045;28;20077;-74
2023/12/05 06:59:37;;;;;;;17.05;10.15;;;;;;;;;;5044309;28;20053;-75
2023/12/05 07:02:07;;;;;;;22.60;11.30;;;;;;;;;;5043936;28;20041;-74
2023/12/05 07:04:38;;;;;;;14.60;9.52;;;;;;;;;;5044347;28;20048;-74
2023/12/05 07:07:09;;;;;;;15.02;9.80;;;;;;;;;;5043957;28;20053;-74
2023/12/05 07:09:39;;;;;;;18.15;9.77;;;;;;;;;;5044062;28;20060;-74
2023/12/05 07:12:10;;;;;;;12.77;9.45;;;;;;;;;;5044803;28;20052;-74
2023/12/05 07:14:40;;;;;;;18.63;11.30;;;;;;;;;;5043360;28;20049;-75
2023/12/05 07:17:11;;;;;;;15.45;10.13;;;;;;;;;;5043953;28;20056;-75
2023/12/05 07:19:40;;;;;;;20.25;13.20;;;;;;;;;;5044064;28;20420;-74
2023/12/05 07:22:12;;;;;;;21.63;9.60;;;;;;;;;;5044200;28;20041;-74
2023/12/05 07:24:43;;;;;;;20.27;17.58;;;;;;;;;;5044420;28;20040;-76
2023/12/05 07:27:13;;;;;;;18.05;10.45;;;;;;;;;;5044402;28;20045;-74
2023/12/05 07:29:43;;;;;;;14.93;12.02;;;;;;;;;;5043924;28;20072;-74
2023/12/05 07:32:14;;;;;;;22.67;20.25;;;;;;;;;;5044468;28;20049;-74
2023/12/05 07:34:45;;;;;;;15.00;9.95;;;;;;;;;;5043899;28;20048;-74
2023/12/05 07:37:15;;;;;;;16.55;12.55;;;;;;;;;;5043908;28;20053;-74
2023/12/05 07:39:46;;;;;;;18.05;15.52;;;;;;;;;;5042697;28;20064;-74
2023/12/05 07:42:16;;;;;;;16.85;13.05;;;;;;;;;;5044293;28;20052;-75
2023/12/05 07:44:46;;;;;;;20.85;18.92;;;;;;;;;;5044028;28;20059;-74
2023/12/05 07:47:17;;;;;;;23.42;21.08;;;;;;;;;;5043682;28;20049;-73
2023/12/05 07:49:47;;;;;;;21.80;17.95;;;;;;;;;;5043376;28;20049;-75
2023/12/05 07:52:18;;;;;;;19.58;17.90;;;;;;;;;;5042783;28;20428;-75
2023/12/05 07:54:49;;;;;;;14.63;9.02;;;;;;;;;;5043857;28;20049;-75
2023/12/05 07:57:22;;;;;;;17.63;9.10;;;;;;;;;;5044135;28;20057;-75
2023/12/05 07:59:53;;;;;;;13.30;10.63;;;;;;;;;;5043687;28;20048;-78
2023/12/05 08:02:23;;;;;;;14.80;10.50;;;;;;;;;;5043310;28;20057;-74
2023/12/05 08:04:54;;;;;;;15.00;13.48;;;;;;;;;;5043533;28;20053;-74
2023/12/05 08:07:24;;;;;;;45.33;41.58;;;;;;;;;;5041877;28;20045;-73
2023/12/05 08:09:57;;;;;;;21.50;17.05;;;;;;;;;;5043438;28;20057;-74
2023/12/05 08:12:28;;;;;;;12.55;10.32;;;;;;;;;;5043406;28;20060;-75
2023/12/05 08:14:59;;;;;;;13.55;11.00;;;;;;;;;;5042890;28;20053;-74
2023/12/05 08:17:29;;;;;;;13.07;10.23;;;;;;;;;;5043012;28;20076;-74
2023/12/05 08:20:01;;;;;;;24.17;21.73;;;;;;;;;;5042810;28;20049;-74
2023/12/05 08:22:33;;;;;;;21.50;12.75;;;;;;;;;;5043224;28;20052;-74
2023/12/05 08:25:07;;;;;;;26.00;23.55;;;;;;;;;;5041728;28;20671;-75
2023/12/05 08:27:37;;;;;;;26.70;21.13;;;;;;;;;;5042832;28;20880;-74
2023/12/05 08:30:08;;;;;;;10.68;9.65;;;;;;;;;;5042635;28;20057;-73
2023/12/05 08:32:38;;;;;;;18.83;13.65;;;;;;;;;;5042889;28;20053;-73
2023/12/05 08:35:10;;;;;;;27.15;23.42;;;;;;;;;;5042682;28;20049;-75
2023/12/05 08:37:40;;;;;;;16.52;12.90;;;;;;;;;;5042209;28;20048;-74
2023/12/05 08:40:11;;;;;;;29.77;26.67;;;;;;;;;;5042345;28;20419;-75
2023/12/05 08:42:42;;;;;;;15.23;10.68;;;;;;;;;;5043047;28;20056;-74
2023/12/05 08:45:12;;;;;;;21.27;12.88;;;;;;;;;;5043337;28;20045;-74
2023/12/05 08:47:42;;;;;;;17.60;10.15;;;;;;;;;;5042850;28;20056;-75
2023/12/05 08:50:13;;;;;;;22.23;12.50;;;;;;;;;;5042822;28;20048;-74
2023/12/05 08:52:44;;;;;;;16.08;9.85;;;;;;;;;;5041888;28;20064;-74
2023/12/05 08:55:15;;;;;;;14.93;7.95;;;;;;;;;;5042551;28;20063;-76
2023/12/05 08:57:46;;;;;;;15.50;12.07;;;;;;;;;;5042932;28;20076;-76
2023/12/05 09:00:17;;;;;;;16.00;7.93;;;;;;;;;;5042998;28;20056;-75
2023/12/05 09:02:47;;;;;;;12.45;11.20;;;;;;;;;;5042682;28;20589;-74
2023/12/05 09:05:17;;;;;;;21.08;13.25;;;;;;;;;;5041620;28;20037;-72
2023/12/05 09:07:48;;;;;;;20.88;12.93;;;;;;;;;;5042249;28;20049;-74
2023/12/05 09:10:19;;;;;;;17.73;8.75;;;;;;;;;;5041900;28;20053;-74
2023/12/05 09:12:49;;;;;;;17.23;9.13;;;;;;;;;;5042173;28;20061;-75
2023/12/05 09:15:20;;;;;;;20.42;9.45;;;;;;;;;;5041982;28;20045;-74
2023/12/05 09:17:51;;;;;;;22.90;15.02;;;;;;;;;;5042108;28;20041;-74
2023/12/05 09:20:22;;;;;;;11.95;9.05;;;;;;;;;;5042630;28;20053;-74
2023/12/05 09:22:52;;;;;;;19.50;11.00;;;;;;;;;;5040127;28;20061;-75
2023/12/05 09:25:29;;;;;;;13.32;7.72;;;;;;;;;;5040749;28;20056;-73
2023/12/05 09:28:00;;;;;;;20.20;14.18;;;;;;;;;;5041296;28;20048;-73
2023/12/05 09:30:30;;;;;;;24.05;15.55;;;;;;;;;;5041639;28;20049;-73
2023/12/05 09:33:01;;;;;;;17.00;9.80;;;;;;;;;;5041511;28;20546;-74
2023/12/05 09:35:32;;;;;;;13.38;11.98;;;;;;;;;;5042797;28;20053;-74
2023/12/05 09:38:04;;;;;;;18.88;9.75;;;;;;;;;;5042252;28;20061;-74
2023/12/05 09:40:35;;;;;;;17.23;13.02;;;;;;;;;;5041348;28;20052;-74
2023/12/05 09:43:06;;;;;;;19.88;17.85;;;;;;;;;;5041720;28;20055;-75
2023/12/05 09:45:43;;;;;;;22.85;19.98;;;;;;;;;;5042209;28;20401;-76
2023/12/05 09:48:19;;;;;;;20.92;12.45;;;;;;;;;;5042478;28;20045;-74
2023/12/05 09:50:51;;;;;;;22.48;10.20;;;;;;;;;;5039595;28;20049;-76
2023/12/05 09:53:24;;;;;;;11.68;9.73;;;;;;;;;;5041996;28;20045;-73
2023/12/05 09:55:54;;;;;;;22.15;12.18;;;;;;;;;;5041812;28;20508;-74
2023/12/05 09:58:25;;;;;;;16.30;12.48;;;;;;;;;;5041976;28;20049;-74
2023/12/05 10:00:57;;;;;;;17.10;10.05;;;;;;;;;;5042370;28;20617;-75
2023/12/05 10:03:32;;;;;;;10.73;9.63;;;;;;;;;;5041434;28;20056;-75
2023/12/05 10:06:08;;;;;;;14.68;9.20;;;;;;;;;;5041964;28;20052;-74
2023/12/05 10:08:40;;;;;;;15.73;8.30;;;;;;;;;;5041656;28;20706;-75
2023/12/05 10:11:12;;;;;;;30.38;27.85;;;;;;;;;;5041471;28;20397;-74
2023/12/05 10:13:45;;;;;;;35.70;32.38;;;;;;;;;;5040603;28;20535;-74
2023/12/05 10:16:16;;;;;;;16.35;10.38;;;;;;;;;;5042441;28;20037;-74
2023/12/05 10:18:50;;;;;;;13.88;9.00;;;;;;;;;;5045881;28;20056;-75
2023/12/05 10:21:21;;;;;;;17.85;12.88;;;;;;;;;;5045808;28;20045;-75
2023/12/05 10:23:51;;;;;;;18.55;10.73;;;;;;;;;;5045892;28;20410;-74
2023/12/05 10:26:22;;;;;;;14.93;13.60;;;;;;;;;;5026318;28;20056;-75
2023/12/05 10:28:56;;;;;;;15.68;9.98;;;;;;;;;;5025500;28;20528;-76
2023/12/05 10:31:28;;;;;;;18.88;10.57;;;;;;;;;;5024956;28;20056;-74
2023/12/05 10:34:06;;;;;;;20.02;18.13;;;;;;;;;;5025210;28;20062;-75
2023/12/05 10:36:36;;;;;;;19.13;9.65;;;;;;;;;;5025254;28;20054;-79
2023/12/05 10:39:06;;;;;;;13.43;11.27;;;;;;;;;;5025068;28;20057;-74
2023/12/05 10:41:38;;;;;;;16.13;12.23;;;;;;;;;;5026537;28;20041;-77
2023/12/05 10:44:10;;;;;;;18.15;9.77;;;;;;;;;;5023809;28;20050;-74
2023/12/05 10:46:39;;;;;;;16.90;9.60;;;;;;;;;;5025373;28;20061;-75
2023/12/05 10:49:11;;;;;;;14.20;10.32;;;;;;;;;;5025880;28;20049;-74
2023/12/05 10:51:42;;;;;;;8.55;6.80;;;;;;;;;;5025875;28;20049;-82
2023/12/05 10:54:13;;;;;;;18.35;12.95;;;;;;;;;;5025290;28;20070;-77
2023/12/05 10:56:58;;;;;;;12.27;8.40;;;;;;;;;;5025352;28;20060;-72
2023/12/05 10:59:29;;;;;;;12.95;9.75;;;;;;;;;;5023709;28;20766;-74
2023/12/05 11:02:00;;;;;;;15.02;8.05;;;;;;;;;;5024841;28;20045;-74
2023/12/05 11:04:30;;;;;;;11.02;9.70;;;;;;;;;;5024790;28;20060;-72
2023/12/05 11:07:01;;;;;;;14.43;9.30;;;;;;;;;;5023506;28;20073;-73
2023/12/05 11:09:32;;;;;;;13.00;9.15;;;;;;;;;;5024659;28;20041;-73
2023/12/05 11:12:08;;;;;;;17.02;14.45;;;;;;;;;;5022919;28;20440;-74
2023/12/05 11:14:41;;;;;;;;;;;;;;;;;;5025970;28;20049;-73
2023/12/05 11:17:17;;;;;;;15.98;14.23;;;;;;;;;;5024237;28;19925;-75
2023/12/05 11:20:02;;;;;;;13.95;7.95;;;;;;;;;;5024276;28;20057;-74
2023/12/05 11:22:39;;;;;;;14.57;10.57;;;;;;;;;;5023824;28;20071;-73
2023/12/05 11:25:42;;;;;;;15.32;13.85;;;;;;;;;;5023764;28;20432;-74
2023/12/05 11:28:31;;;;;;;12.65;9.90;;;;;;;;;;5014166;28;20061;-73
2023/12/05 11:31:33;;;;;;;13.95;10.40;;;;;;;;;;5024583;28;20050;-73
2023/12/05 11:34:13;;;;;;;12.52;11.25;;;;;;;;;;5023960;28;20096;-74
2023/12/05 11:36:46;;;;;;;10.88;9.88;;;;;;;;;;5024322;28;20129;-74
2023/12/05 11:39:18;;;;;;;12.85;8.82;;;;;;;;;;5025129;28;20045;-74
2023/12/05 11:42:11;;;;;;;10.50;9.52;;;;;;;;;;5022620;28;20056;-73
2023/12/05 11:44:42;;;;;;;11.88;8.98;;;;;;;;;;5024389;28;20056;-74
2023/12/05 11:47:28;;;;;;;16.88;14.00;;;;;;;;;;5023606;28;20805;-74
2023/12/05 11:50:04;;;;;;;14.88;13.40;;;;;;;;;;5022482;28;20049;-74
2023/12/05 11:52:39;;;;;;;13.57;10.73;;;;;;;;;;5023539;28;20531;-74
2023/12/05 11:55:12;;;;;;;15.32;11.98;;;;;;;;;;5023513;28;20057;-75
2023/12/05 11:57:44;;;;;;;11.82;10.48;;;;;;;;;;5023486;28;20056;-74
2023/12/05 12:00:16;;;;;;;14.93;13.68;;;;;;;;;;5024548;28;20042;-75
2023/12/05 12:02:48;;;;;;;12.88;11.45;;;;;;;;;;5023750;28;20049;-74
2023/12/05 12:05:19;;;;;;;11.02;10.15;;;;;;;;;;5024745;28;20056;-73
2023/12/05 12:07:57;;;;;;;17.08;15.52;;;;;;;;;;5024482;28;20049;-79
2023/12/05 12:10:28;;;;;;;12.05;10.77;;;;;;;;;;5022569;28;20060;-75
2023/12/05 12:12:59;;;;;;;9.65;8.43;;;;;;;;;;5024256;28;20046;-73
2023/12/05 12:15:41;;;;;;;9.88;7.60;;;;;;;;;;5024238;28;20053;-75
2023/12/05 12:18:12;;;;;;;9.98;8.85;;;;;;;;;;5023849;28;20045;-74
2023/12/05 12:20:51;;;;;;;9.95;8.57;;;;;;;;;;5023131;28;20046;-74
2023/12/05 12:23:21;;;;;;;8.85;8.02;;;;;;;;;;5023385;28;20045;-74
2023/12/05 12:26:00;;;;;;;13.45;9.80;;;;;;;;;;5023215;28;20049;-75
2023/12/05 12:28:33;;;;;;;8.68;7.75;;;;;;;;;;5023694;28;20108;-73
2023/12/05 12:31:04;;;;;;;12.65;9.32;;;;;;;;;;5021868;28;20045;-76
2023/12/05 12:33:41;;;;;;;27.05;24.83;;;;;;;;;;5023725;28;20424;-75
2023/12/05 12:36:17;;;;;;;12.20;10.98;;;;;;;;;;5024128;28;20050;-75
2023/12/05 12:38:49;;;;;;;12.07;9.10;;;;;;;;;;5023686;28;20068;-75
2023/12/05 12:41:21;;;;;;;11.55;10.57;;;;;;;;;;5022950;28;20546;-75
2023/12/05 12:43:53;;;;;;;13.02;11.70;;;;;;;;;;5023082;28;20038;-74
2023/12/05 12:46:23;;;;;;;9.23;7.97;;;;;;;;;;5022863;28;20049;-75
2023/12/05 12:48:56;;;;;;;10.65;9.75;;;;;;;;;;5023291;28;20056;-75
2023/12/05 12:51:27;;;;;;;19.20;9.95;;;;;;;;;;5023441;28;20575;-74
2023/12/05 12:53:58;;;;;;;10.43;9.38;;;;;;;;;;5022826;28;20420;-76
2023/12/05 12:56:36;;;;;;;11.13;9.93;;;;;;;;;;5023055;28;20060;-74
2023/12/05 12:59:10;;;;;;;9.57;8.70;;;;;;;;;;5022412;28;20041;-75
2023/12/05 13:01:43;;;;;;;10.38;9.50;;;;;;;;;;5023478;28;20061;-74
2023/12/05 13:04:14;;;;;;;11.18;10.07;;;;;;;;;;5023690;28;20045;-76
2023/12/05 13:06:47;;;;;;;13.45;12.18;;;;;;;;;;5024214;28;20563;-73
2023/12/05 13:09:20;;;;;;;16.27;14.95;;;;;;;;;;5022823;28;20878;-75
2023/12/05 13:11:52;;;;;;;19.40;17.42;;;;;;;;;;5022902;28;20488;-74
2023/12/05 13:14:23;;;;;;;14.55;9.65;;;;;;;;;;5022996;28;20057;-74
2023/12/05 13:16:52;;;;;;;12.80;10.25;;;;;;;;;;5020560;28;20053;-76
2023/12/05 13:19:27;;;;;;;12.60;9.70;;;;;;;;;;5022262;28;20548;-73
2023/12/05 13:21:59;;;;;;;13.60;12.18;;;;;;;;;;5022586;28;20053;-74
2023/12/05 13:24:30;;;;;;;10.32;9.25;;;;;;;;;;5038492;28;20068;-74
2023/12/05 13:27:00;;;;;;;13.05;11.82;;;;;;;;;;5021372;28;20057;-73
2023/12/05 13:29:30;;;;;;;18.80;17.05;;;;;;;;;;5022472;28;20052;-74
2023/12/05 13:32:00;;;;;;;9.60;8.60;;;;;;;;;;5024324;28;20053;-75
2023/12/05 13:34:30;;;;;;;14.30;9.13;;;;;;;;;;5024554;28;20094;-73
2023/12/05 13:37:02;;;;;;;12.77;11.52;;;;;;;;;;5023238;28;20056;-73
2023/12/05 13:39:32;;;;;;;10.52;9.73;;;;;;;;;;5023159;28;20072;-77
2023/12/05 13:42:02;;;;;;;18.00;16.65;;;;;;;;;;5022996;28;20405;-76
2023/12/05 13:44:39;;;;;;;33.85;31.38;;;;;;;;;;5023452;28;20508;-76
2023/12/05 13:47:10;;;;;;;8.93;8.23;;;;;;;;;;5023255;28;20049;-74
2023/12/05 13:49:41;;;;;;;13.52;12.32;;;;;;;;;;5021715;28;20065;-74
2023/12/05 13:52:11;;;;;;;8.70;7.82;;;;;;;;;;5022570;28;20060;-76
2023/12/05 13:54:42;;;;;;;12.35;10.85;;;;;;;;;;5022050;28;20050;-74
2023/12/05 13:57:18;;;;;;;15.32;12.10;;;;;;;;;;5023266;28;20527;-73
2023/12/05 13:59:52;;;;;;;9.82;8.98;;;;;;;;;;5021974;28;20508;-74
2023/12/05 14:02:22;;;;;;;9.75;8.95;;;;;;;;;;5022435;28;20049;-74
2023/12/05 14:04:52;;;;;;;11.82;10.90;;;;;;;;;;5021838;28;20046;-74
2023/12/05 14:07:25;;;;;;;10.82;8.10;;;;;;;;;;5021950;28;20045;-76
2023/12/05 14:09:56;;;;;;;9.70;8.50;;;;;;;;;;5022799;28;20049;-74
2023/12/05 14:12:27;;;;;;;10.40;9.43;;;;;;;;;;5021992;28;20822;-75
2023/12/05 14:14:58;;;;;;;8.52;7.80;;;;;;;;;;5021842;28;20048;-75
2023/12/05 14:17:28;;;;;;;9.82;9.05;;;;;;;;;;5021906;28;20049;-75
2023/12/05 14:20:00;;;;;;;12.85;11.88;;;;;;;;;;5022549;28;20401;-74
2023/12/05 14:22:30;;;;;;;10.18;9.32;;;;;;;;;;5022122;28;20053;-74
2023/12/05 14:25:00;;;;;;;10.60;9.82;;;;;;;;;;5022282;28;20041;-75
2023/12/05 14:27:31;;;;;;;13.02;10.57;;;;;;;;;;5021808;28;20061;-74
2023/12/05 14:30:02;;;;;;;9.30;7.90;;;;;;;;;;5022147;28;20060;-72
2023/12/05 14:32:33;;;;;;;11.07;10.25;;;;;;;;;;5035977;28;20064;-75
2023/12/05 14:35:06;;;;;;;9.65;8.50;;;;;;;;;;5022061;28;20057;-74
2023/12/05 14:37:36;;;;;;;16.48;15.00;;;;;;;;;;5021348;28;20390;-73
2023/12/05 14:40:06;;;;;;;13.35;11.63;;;;;;;;;;5021377;28;20041;-73
2023/12/05 14:42:38;;;;;;;10.05;8.00;;;;;;;;;;5021407;28;20046;-73
2023/12/05 14:45:09;;;;;;;14.07;8.43;;;;;;;;;;5021507;28;20037;-77
2023/12/05 14:47:39;;;;;;;10.65;9.65;;;;;;;;;;5021955;28;20060;-73
2023/12/05 14:50:13;;;;;;;11.18;9.80;;;;;;;;;;5022192;28;20053;-77